ARG1240 SABE-SBSP
Flight info
| Callsign | ARG1240 |
|---|---|
| Flight time | N/A |
| Altitude | 37000 |
| Route | KUKEN8 KUKEN UM654 GAMOT UZ68 DOLDI UM400 KOXAG UM540 ANISE |
| Aircraft | A343/H-SDE2E3FGHIJ4J5M1RWXY/LB1D1 |
Departure
| Time | N/A |
|---|---|
| Airport | Aeroparque Jorge Newbery (SABE) |
Arrival
| Time | 2026-05-04 21:17 |
|---|---|
| Airport | Congonhas–Deputado Freitas Nobre Airport (SBSP) |
| Time | Latitude | Longitude | Altitude | Speed | Heading |
|---|---|---|---|---|---|
| 2026-05-04 19:58 | -28.27994 | -52.29530 | 39059 ft | 515 kts | 44° |
| 2026-05-04 19:58 | -28.22971 | -52.23744 | 39088 ft | 513 kts | 44° |
| 2026-05-04 19:59 | -28.17976 | -52.17997 | 39092 ft | 511 kts | 44° |
| 2026-05-04 19:59 | -28.13015 | -52.12299 | 39077 ft | 511 kts | 44° |
| 2026-05-04 20:00 | -28.08024 | -52.06574 | 39095 ft | 511 kts | 44° |
| 2026-05-04 20:00 | -28.03025 | -52.00848 | 39077 ft | 512 kts | 43° |
| 2026-05-04 20:01 | -27.98013 | -51.95112 | 39094 ft | 513 kts | 43° |
| 2026-05-04 20:01 | -27.92998 | -51.89381 | 39097 ft | 512 kts | 43° |
| 2026-05-04 20:02 | -27.87981 | -51.83657 | 39100 ft | 512 kts | 43° |
| 2026-05-04 20:02 | -27.82957 | -51.77931 | 39098 ft | 512 kts | 43° |
| 2026-05-04 20:03 | -27.77935 | -51.72214 | 39096 ft | 512 kts | 43° |
| 2026-05-04 20:03 | -27.72910 | -51.66507 | 39102 ft | 513 kts | 43° |
| 2026-05-04 20:04 | -27.67915 | -51.60844 | 39090 ft | 513 kts | 43° |
| 2026-05-04 20:04 | -27.62885 | -51.55147 | 39097 ft | 513 kts | 43° |
| 2026-05-04 20:05 | -27.57852 | -51.49455 | 39102 ft | 513 kts | 43° |
| 2026-05-04 20:05 | -27.52817 | -51.43768 | 39096 ft | 512 kts | 43° |
| 2026-05-04 20:06 | -27.47788 | -51.38095 | 39114 ft | 511 kts | 43° |
| 2026-05-04 20:06 | -27.42755 | -51.32426 | 39104 ft | 511 kts | 43° |
| 2026-05-04 20:07 | -27.37724 | -51.26766 | 39104 ft | 512 kts | 43° |
| 2026-05-04 20:07 | -27.32719 | -51.21143 | 39104 ft | 512 kts | 43° |
| 2026-05-04 20:08 | -27.27676 | -51.15492 | 39102 ft | 512 kts | 43° |
| 2026-05-04 20:08 | -27.22629 | -51.09848 | 39123 ft | 512 kts | 43° |
| 2026-05-04 20:09 | -27.17577 | -51.04205 | 39124 ft | 512 kts | 43° |
| 2026-05-04 20:09 | -27.12534 | -50.98577 | 39117 ft | 511 kts | 43° |
| 2026-05-04 20:10 | -27.07492 | -50.92959 | 39118 ft | 510 kts | 43° |
| 2026-05-04 20:10 | -27.02449 | -50.87349 | 39130 ft | 511 kts | 43° |
| 2026-05-04 20:11 | -26.97393 | -50.81733 | 39128 ft | 512 kts | 43° |
| 2026-05-04 20:11 | -26.92365 | -50.76153 | 39135 ft | 512 kts | 43° |
| 2026-05-04 20:12 | -26.87298 | -50.70538 | 39135 ft | 512 kts | 43° |
| 2026-05-04 20:12 | -26.82229 | -50.64928 | 39142 ft | 512 kts | 43° |
| 2026-05-04 20:13 | -26.77157 | -50.59322 | 39142 ft | 512 kts | 43° |
| 2026-05-04 20:13 | -26.72096 | -50.53716 | 39143 ft | 512 kts | 43° |
| 2026-05-04 20:14 | -26.67043 | -50.48105 | 39146 ft | 512 kts | 43° |
| 2026-05-04 20:14 | -26.62024 | -50.42541 | 39146 ft | 512 kts | 43° |
| 2026-05-04 20:15 | -26.57137 | -50.36757 | 39146 ft | 514 kts | 53° |
| 2026-05-04 20:15 | -26.53641 | -50.29818 | 39146 ft | 513 kts | 65° |
| 2026-05-04 20:16 | -26.50667 | -50.22567 | 39147 ft | 514 kts | 67° |
| 2026-05-04 20:16 | -26.47764 | -50.15273 | 39146 ft | 514 kts | 66° |
| 2026-05-04 20:17 | -26.44835 | -50.07986 | 39144 ft | 514 kts | 66° |
| 2026-05-04 20:17 | -26.41880 | -50.00718 | 39144 ft | 514 kts | 66° |
| 2026-05-04 20:18 | -26.38919 | -49.93465 | 39142 ft | 514 kts | 66° |
| 2026-05-04 20:18 | -26.35954 | -49.86214 | 39145 ft | 514 kts | 66° |
| 2026-05-04 20:19 | -26.33008 | -49.79015 | 39144 ft | 513 kts | 66° |
| 2026-05-04 20:19 | -26.30063 | -49.71769 | 39147 ft | 514 kts | 66° |
| 2026-05-04 20:20 | -26.27110 | -49.64495 | 39135 ft | 515 kts | 66° |
| 2026-05-04 20:20 | -26.24155 | -49.57237 | 39129 ft | 514 kts | 66° |
| 2026-05-04 20:21 | -26.21193 | -49.49985 | 39142 ft | 514 kts | 65° |
| 2026-05-04 20:21 | -26.16704 | -49.39124 | 39141 ft | 515 kts | 65° |
| 2026-05-04 20:22 | -26.13708 | -49.31886 | 39141 ft | 515 kts | 65° |
| 2026-05-04 20:22 | -26.10707 | -49.24655 | 39135 ft | 515 kts | 65° |
| 2026-05-04 20:23 | -26.07728 | -49.17472 | 39137 ft | 515 kts | 65° |
| 2026-05-04 20:23 | -26.04732 | -49.10242 | 39121 ft | 514 kts | 65° |
| 2026-05-04 20:24 | -26.01737 | -49.03025 | 39125 ft | 514 kts | 65° |
| 2026-05-04 20:24 | -25.98742 | -48.95807 | 39132 ft | 514 kts | 65° |
| 2026-05-04 20:25 | -25.95743 | -48.88600 | 39132 ft | 514 kts | 65° |
| 2026-05-04 20:25 | -25.92734 | -48.81394 | 39127 ft | 514 kts | 65° |
| 2026-05-04 20:26 | -25.89721 | -48.74188 | 39127 ft | 514 kts | 65° |
| 2026-05-04 20:26 | -25.86725 | -48.67037 | 39121 ft | 514 kts | 65° |
| 2026-05-04 20:27 | -25.83707 | -48.59842 | 39121 ft | 514 kts | 65° |
| 2026-05-04 20:27 | -25.80685 | -48.52658 | 39118 ft | 513 kts | 65° |
| 2026-05-04 20:28 | -25.77663 | -48.45482 | 39116 ft | 513 kts | 65° |
| 2026-05-04 20:28 | -25.74635 | -48.38304 | 39113 ft | 513 kts | 65° |
| 2026-05-04 20:29 | -25.71608 | -48.31138 | 39116 ft | 513 kts | 65° |
| 2026-05-04 20:29 | -25.68594 | -48.24018 | 39116 ft | 513 kts | 65° |
| 2026-05-04 20:30 | -25.65559 | -48.16858 | 39117 ft | 513 kts | 65° |
| 2026-05-04 20:30 | -25.62519 | -48.09698 | 39116 ft | 514 kts | 65° |
| 2026-05-04 20:31 | -25.59477 | -48.02541 | 39117 ft | 513 kts | 65° |
| 2026-05-04 20:31 | -25.56424 | -47.95390 | 39113 ft | 514 kts | 65° |
| 2026-05-04 20:32 | -25.54679 | -47.91307 | 39116 ft | 514 kts | 65° |
| 2026-05-04 20:33 | -25.53651 | -47.88905 | 39116 ft | 515 kts | 65° |
| 2026-05-04 20:33 | -25.50587 | -47.81744 | 39113 ft | 515 kts | 65° |
| 2026-05-04 20:34 | -25.47520 | -47.74583 | 39110 ft | 515 kts | 65° |
| 2026-05-04 20:34 | -25.44447 | -47.67422 | 39110 ft | 516 kts | 65° |
| 2026-05-04 20:35 | -25.41367 | -47.60257 | 39114 ft | 516 kts | 65° |
| 2026-05-04 20:35 | -25.38280 | -47.53087 | 39113 ft | 517 kts | 64° |
| 2026-05-04 20:36 | -25.35184 | -47.45916 | 39113 ft | 517 kts | 64° |
| 2026-05-04 20:36 | -25.32104 | -47.38798 | 39113 ft | 517 kts | 64° |
| 2026-05-04 20:37 | -25.28992 | -47.31618 | 39063 ft | 519 kts | 64° |
| 2026-05-04 20:37 | -25.27432 | -47.28022 | 38740 ft | 520 kts | 64° |
| 2026-05-04 20:37 | -25.25870 | -47.24424 | 38299 ft | 519 kts | 64° |
| 2026-05-04 20:38 | -25.24308 | -47.20831 | 37814 ft | 519 kts | 64° |
| 2026-05-04 20:38 | -25.22742 | -47.17231 | 37098 ft | 521 kts | 64° |
| 2026-05-04 20:38 | -25.21167 | -47.13612 | 36395 ft | 524 kts | 64° |
| 2026-05-04 20:38 | -25.19584 | -47.09978 | 35748 ft | 525 kts | 64° |
| 2026-05-04 20:39 | -25.18002 | -47.06349 | 35106 ft | 526 kts | 65° |
| 2026-05-04 20:39 | -25.16414 | -47.02710 | 34490 ft | 526 kts | 65° |
| 2026-05-04 20:39 | -25.15259 | -47.00352 | 34027 ft | 527 kts | 56° |
| 2026-05-04 20:39 | -25.11966 | -46.96393 | 33004 ft | 523 kts | 34° |
| 2026-05-04 20:40 | -25.09981 | -46.94903 | 32504 ft | 521 kts | 28° |
| 2026-05-04 20:40 | -25.06858 | -46.92872 | 31755 ft | 521 kts | 27° |
| 2026-05-04 20:40 | -25.03714 | -46.90865 | 31042 ft | 521 kts | 27° |
| 2026-05-04 20:40 | -25.00592 | -46.88853 | 30420 ft | 519 kts | 27° |
| 2026-05-04 20:41 | -24.97482 | -46.86836 | 29744 ft | 516 kts | 27° |
| 2026-05-04 20:41 | -24.94399 | -46.84828 | 29061 ft | 513 kts | 27° |
| 2026-05-04 20:41 | -24.91345 | -46.82836 | 28504 ft | 508 kts | 27° |
| 2026-05-04 20:41 | -24.88321 | -46.80860 | 27960 ft | 502 kts | 28° |
| 2026-05-04 20:42 | -24.85334 | -46.78909 | 27443 ft | 496 kts | 28° |
| 2026-05-04 20:42 | -24.82380 | -46.76980 | 26908 ft | 491 kts | 28° |
| 2026-05-04 20:42 | -24.79457 | -46.75073 | 26394 ft | 486 kts | 28° |
| 2026-05-04 20:42 | -24.76561 | -46.73183 | 25870 ft | 482 kts | 28° |
| 2026-05-04 20:43 | -24.73692 | -46.71312 | 25349 ft | 477 kts | 28° |
| 2026-05-04 20:43 | -24.70845 | -46.69456 | 24849 ft | 473 kts | 28° |
| 2026-05-04 20:43 | -24.68034 | -46.67625 | 24317 ft | 469 kts | 28° |
| 2026-05-04 20:43 | -24.65241 | -46.65807 | 23807 ft | 465 kts | 28° |
| 2026-05-04 20:44 | -24.62498 | -46.64046 | 23232 ft | 460 kts | 26° |
| 2026-05-04 20:44 | -24.59556 | -46.62777 | 22675 ft | 450 kts | 9° |
| 2026-05-04 20:44 | -24.56488 | -46.62431 | 22169 ft | 439 kts | 357° |
| 2026-05-04 20:44 | -24.53455 | -46.62446 | 21674 ft | 433 kts | 356° |
| 2026-05-04 20:45 | -24.50463 | -46.62487 | 21184 ft | 428 kts | 356° |
| 2026-05-04 20:45 | -24.47499 | -46.62516 | 20699 ft | 424 kts | 356° |
| 2026-05-04 20:45 | -24.44561 | -46.62534 | 20227 ft | 419 kts | 357° |
| 2026-05-04 20:45 | -24.41652 | -46.62546 | 19758 ft | 415 kts | 357° |
| 2026-05-04 20:46 | -24.38774 | -46.62556 | 19261 ft | 412 kts | 357° |
| 2026-05-04 20:46 | -24.35915 | -46.62565 | 18771 ft | 410 kts | 357° |
| 2026-05-04 20:46 | -24.33074 | -46.62567 | 18242 ft | 407 kts | 357° |
| 2026-05-04 20:46 | -24.30252 | -46.62568 | 17716 ft | 404 kts | 357° |
| 2026-05-04 20:47 | -24.27456 | -46.62569 | 17224 ft | 399 kts | 357° |
| 2026-05-04 20:47 | -24.24697 | -46.62570 | 16727 ft | 395 kts | 357° |
| 2026-05-04 20:47 | -24.21992 | -46.62572 | 16268 ft | 392 kts | 357° |
| 2026-05-04 20:47 | -24.19281 | -46.62574 | 15768 ft | 389 kts | 357° |
| 2026-05-04 20:48 | -24.16581 | -46.62575 | 15292 ft | 386 kts | 357° |
| 2026-05-04 20:48 | -24.13906 | -46.62577 | 14809 ft | 383 kts | 357° |
| 2026-05-04 20:48 | -24.11257 | -46.62578 | 14337 ft | 381 kts | 357° |
| 2026-05-04 20:48 | -24.08613 | -46.62580 | 13845 ft | 378 kts | 357° |
| 2026-05-04 20:49 | -24.05989 | -46.62583 | 13333 ft | 376 kts | 357° |
| 2026-05-04 20:49 | -24.03381 | -46.62585 | 12842 ft | 373 kts | 357° |
| 2026-05-04 20:49 | -24.00799 | -46.62587 | 12371 ft | 370 kts | 358° |
| 2026-05-04 20:49 | -23.98236 | -46.62588 | 11897 ft | 367 kts | 358° |
| 2026-05-04 20:50 | -23.95695 | -46.62589 | 11430 ft | 364 kts | 358° |
| 2026-05-04 20:50 | -23.93175 | -46.62590 | 10965 ft | 361 kts | 358° |
| 2026-05-04 20:50 | -23.90675 | -46.62591 | 10600 ft | 355 kts | 358° |
| 2026-05-04 20:50 | -23.88245 | -46.62592 | 10504 ft | 342 kts | 358° |
| 2026-05-04 20:51 | -23.85932 | -46.62804 | 10390 ft | 326 kts | 344° |
| 2026-05-04 20:51 | -23.83910 | -46.63764 | 10271 ft | 311 kts | 327° |
| 2026-05-04 20:51 | -23.82127 | -46.64984 | 10122 ft | 302 kts | 325° |
| 2026-05-04 20:51 | -23.80388 | -46.66210 | 9958 ft | 295 kts | 325° |
| 2026-05-04 20:52 | -23.78679 | -46.67411 | 9705 ft | 290 kts | 325° |
| 2026-05-04 20:52 | -23.76996 | -46.68590 | 9436 ft | 286 kts | 325° |
| 2026-05-04 20:52 | -23.75323 | -46.69758 | 9154 ft | 283 kts | 325° |
| 2026-05-04 20:52 | -23.73681 | -46.70898 | 9050 ft | 276 kts | 325° |
| 2026-05-04 20:53 | -23.72052 | -46.72032 | 9054 ft | 280 kts | 325° |
| 2026-05-04 20:53 | -23.70409 | -46.73174 | 8988 ft | 279 kts | 324° |
| 2026-05-04 20:53 | -23.68775 | -46.74308 | 8721 ft | 278 kts | 325° |
| 2026-05-04 20:53 | -23.67146 | -46.75436 | 8388 ft | 276 kts | 326° |
| 2026-05-04 20:54 | -23.65531 | -46.76554 | 8087 ft | 274 kts | 326° |
| 2026-05-04 20:54 | -23.63929 | -46.77663 | 7766 ft | 272 kts | 325° |
| 2026-05-04 20:54 | -23.62338 | -46.78767 | 7449 ft | 270 kts | 326° |
| 2026-05-04 20:54 | -23.60760 | -46.79860 | 7037 ft | 267 kts | 326° |
| 2026-05-04 20:55 | -23.59206 | -46.80936 | 6451 ft | 262 kts | 326° |
| 2026-05-04 20:55 | -23.57675 | -46.81999 | 5829 ft | 258 kts | 326° |
| 2026-05-04 20:55 | -23.56190 | -46.83048 | 5214 ft | 251 kts | 327° |
| 2026-05-04 20:55 | -23.54766 | -46.84080 | 4635 ft | 248 kts | 326° |
| 2026-05-04 20:56 | -23.53269 | -46.84964 | 4323 ft | 243 kts | 343° |
| 2026-05-04 20:56 | -23.51609 | -46.85023 | 4087 ft | 240 kts | 14° |
| 2026-05-04 20:56 | -23.50191 | -46.84152 | 3942 ft | 232 kts | 46° |
| 2026-05-04 20:56 | -23.49457 | -46.82654 | 3939 ft | 223 kts | 79° |
| 2026-05-04 20:57 | -23.49521 | -46.81024 | 3941 ft | 210 kts | 103° |
| 2026-05-04 20:57 | -23.49919 | -46.79547 | 3938 ft | 197 kts | 108° |
| 2026-05-04 20:57 | -23.50343 | -46.78183 | 3956 ft | 181 kts | 108° |
| 2026-05-04 20:57 | -23.50748 | -46.76928 | 3967 ft | 167 kts | 108° |
| 2026-05-04 20:58 | -23.51140 | -46.75751 | 3960 ft | 165 kts | 109° |
| 2026-05-04 20:58 | -23.51643 | -46.74625 | 3967 ft | 167 kts | 121° |
| 2026-05-04 20:58 | -23.52271 | -46.73615 | 3963 ft | 153 kts | 124° |
| 2026-05-04 20:58 | -23.52872 | -46.72714 | 3953 ft | 143 kts | 125° |
| 2026-05-04 20:59 | -23.53544 | -46.71916 | 3956 ft | 144 kts | 141° |
| 2026-05-04 20:59 | -23.54393 | -46.71326 | 3966 ft | 145 kts | 150° |
| 2026-05-04 20:59 | -23.55262 | -46.70771 | 3961 ft | 145 kts | 146° |
| 2026-05-04 20:59 | -23.56121 | -46.70160 | 3940 ft | 146 kts | 146° |
| 2026-05-04 21:00 | -23.56980 | -46.69569 | 3804 ft | 145 kts | 147° |
| 2026-05-04 21:00 | -23.57824 | -46.68987 | 3594 ft | 142 kts | 146° |
| 2026-05-04 21:00 | -23.58651 | -46.68412 | 3422 ft | 140 kts | 147° |
| 2026-05-04 21:00 | -23.59463 | -46.67848 | 3222 ft | 138 kts | 148° |
| 2026-05-04 21:01 | -23.60268 | -46.67301 | 3048 ft | 136 kts | 148° |
| 2026-05-04 21:01 | -23.61065 | -46.66757 | 2852 ft | 134 kts | 149° |
| 2026-05-04 21:01 | -23.61847 | -46.66217 | 2683 ft | 132 kts | 144° |
| 2026-05-04 21:01 | -23.62634 | -46.65659 | 2759 ft | 146 kts | 146° |
| 2026-05-04 21:02 | -23.63564 | -46.64981 | 3136 ft | 174 kts | 144° |
| 2026-05-04 21:03 | -23.70490 | -46.62229 | 5287 ft | 227 kts | 165° |
| 2026-05-04 21:03 | -23.71995 | -46.61719 | 5076 ft | 226 kts | 165° |
| 2026-05-04 21:03 | -23.73521 | -46.61214 | 4827 ft | 232 kts | 165° |
| 2026-05-04 21:04 | -23.75063 | -46.60717 | 4549 ft | 231 kts | 165° |
| 2026-05-04 21:04 | -23.76609 | -46.60237 | 4292 ft | 230 kts | 166° |
| 2026-05-04 21:04 | -23.78186 | -46.60161 | 4051 ft | 227 kts | 195° |
| 2026-05-04 21:04 | -23.79493 | -46.60977 | 3965 ft | 211 kts | 230° |
| 2026-05-04 21:05 | -23.80046 | -46.62330 | 4204 ft | 188 kts | 269° |
| 2026-05-04 21:05 | -23.79727 | -46.63674 | 4711 ft | 185 kts | 301° |
| 2026-05-04 21:05 | -23.79005 | -46.64845 | 5416 ft | 186 kts | 306° |
| 2026-05-04 21:05 | -23.78211 | -46.65952 | 5844 ft | 184 kts | 308° |
| 2026-05-04 21:06 | -23.77284 | -46.66910 | 5982 ft | 182 kts | 320° |
| 2026-05-04 21:06 | -23.76299 | -46.67727 | 6003 ft | 173 kts | 321° |
| 2026-05-04 21:06 | -23.75335 | -46.68491 | 5993 ft | 172 kts | 322° |
| 2026-05-04 21:06 | -23.74376 | -46.69236 | 5982 ft | 165 kts | 322° |
| 2026-05-04 21:07 | -23.73748 | -46.69719 | 5970 ft | 163 kts | 322° |
| 2026-05-04 21:07 | -23.72825 | -46.70426 | 5828 ft | 162 kts | 323° |
| 2026-05-04 21:07 | -23.71901 | -46.71132 | 5677 ft | 162 kts | 323° |
| 2026-05-04 21:07 | -23.70985 | -46.71829 | 5536 ft | 163 kts | 323° |
| 2026-05-04 21:08 | -23.70042 | -46.72547 | 5377 ft | 163 kts | 323° |
| 2026-05-04 21:08 | -23.69119 | -46.73248 | 5247 ft | 164 kts | 323° |
| 2026-05-04 21:08 | -23.68182 | -46.73960 | 5104 ft | 164 kts | 324° |
| 2026-05-04 21:08 | -23.67245 | -46.74671 | 4957 ft | 164 kts | 324° |
| 2026-05-04 21:09 | -23.66302 | -46.75384 | 4816 ft | 165 kts | 324° |
| 2026-05-04 21:09 | -23.65356 | -46.76102 | 4660 ft | 166 kts | 324° |
| 2026-05-04 21:09 | -23.64407 | -46.76822 | 4507 ft | 166 kts | 324° |
| 2026-05-04 21:09 | -23.63478 | -46.77527 | 4334 ft | 159 kts | 324° |
| 2026-05-04 21:10 | -23.62590 | -46.78201 | 4182 ft | 151 kts | 325° |
| 2026-05-04 21:10 | -23.61744 | -46.78843 | 4000 ft | 146 kts | 326° |
| 2026-05-04 21:10 | -23.60929 | -46.79460 | 3988 ft | 146 kts | 326° |
| 2026-05-04 21:10 | -23.60080 | -46.80103 | 3990 ft | 149 kts | 326° |
| 2026-05-04 21:11 | -23.59185 | -46.80680 | 3978 ft | 150 kts | 336° |
| 2026-05-04 21:11 | -23.58193 | -46.81017 | 3973 ft | 149 kts | 351° |
| 2026-05-04 21:11 | -23.57160 | -46.81064 | 3971 ft | 149 kts | 5° |
| 2026-05-04 21:11 | -23.56154 | -46.80813 | 3968 ft | 148 kts | 20° |
| 2026-05-04 21:12 | -23.55333 | -46.80140 | 3957 ft | 149 kts | 46° |
| 2026-05-04 21:12 | -23.54669 | -46.79276 | 3957 ft | 149 kts | 52° |
| 2026-05-04 21:12 | -23.54051 | -46.78368 | 3959 ft | 149 kts | 53° |
| 2026-05-04 21:12 | -23.53457 | -46.77441 | 3959 ft | 149 kts | 54° |
| 2026-05-04 21:13 | -23.52877 | -46.76505 | 3963 ft | 149 kts | 56° |
| 2026-05-04 21:13 | -23.52337 | -46.75543 | 3964 ft | 149 kts | 63° |
| 2026-05-04 21:13 | -23.52080 | -46.74450 | 3957 ft | 151 kts | 87° |
| 2026-05-04 21:13 | -23.52289 | -46.73324 | 3957 ft | 153 kts | 116° |
| 2026-05-04 21:14 | -23.52948 | -46.72404 | 3971 ft | 152 kts | 131° |
| 2026-05-04 21:14 | -23.53807 | -46.71726 | 3965 ft | 154 kts | 151° |
| 2026-05-04 21:14 | -23.54745 | -46.71162 | 3969 ft | 154 kts | 147° |
| 2026-05-04 21:14 | -23.55626 | -46.70499 | 3975 ft | 154 kts | 146° |
| 2026-05-04 21:15 | -23.56534 | -46.69877 | 3859 ft | 154 kts | 147° |
| 2026-05-04 21:15 | -23.57435 | -46.69258 | 3685 ft | 152 kts | 146° |
| 2026-05-04 21:15 | -23.58319 | -46.68644 | 3490 ft | 149 kts | 146° |
| 2026-05-04 21:15 | -23.59187 | -46.68046 | 3288 ft | 147 kts | 148° |
| 2026-05-04 21:16 | -23.60045 | -46.67453 | 3105 ft | 145 kts | 148° |
| 2026-05-04 21:16 | -23.60890 | -46.66863 | 2880 ft | 142 kts | 150° |
| 2026-05-04 21:16 | -23.61722 | -46.66297 | 2731 ft | 142 kts | 150° |
| 2026-05-04 21:16 | -23.62552 | -46.65736 | 2609 ft | 127 kts | 147° |
| 2026-05-04 21:17 | -23.63040 | -46.65391 | 2614 ft | 41 kts | 147° |
| 2026-05-04 21:17 | -23.63207 | -46.65273 | 2614 ft | 27 kts | 147° |
| 2026-05-04 21:17 | -23.63316 | -46.65196 | 2612 ft | 13 kts | 147° |
| 2026-05-04 21:17 | -23.63381 | -46.65180 | 2609 ft | 8 kts | 194° |
| 2026-05-04 21:18 | -23.63412 | -46.65209 | 2607 ft | 3 kts | 236° |
| 2026-05-04 21:18 | -23.63417 | -46.65248 | 2606 ft | 7 kts | 276° |
| 2026-05-04 21:18 | -23.63391 | -46.65287 | 2606 ft | 7 kts | 314° |
| 2026-05-04 21:18 | -23.63348 | -46.65319 | 2606 ft | 8 kts | 330° |
| 2026-05-04 21:19 | -23.63296 | -46.65355 | 2606 ft | 10 kts | 327° |
| 2026-05-04 21:19 | -23.63236 | -46.65397 | 2606 ft | 11 kts | 327° |
| 2026-05-04 21:19 | -23.63169 | -46.65444 | 2606 ft | 12 kts | 327° |
| 2026-05-04 21:19 | -23.63103 | -46.65491 | 2606 ft | 10 kts | 327° |
| 2026-05-04 21:20 | -23.63053 | -46.65517 | 2606 ft | 7 kts | 343° |
| 2026-05-04 21:20 | -23.63008 | -46.65526 | 2607 ft | 7 kts | 344° |
| 2026-05-04 21:20 | -23.62963 | -46.65545 | 2607 ft | 7 kts | 334° |
| 2026-05-04 21:20 | -23.62918 | -46.65581 | 2607 ft | 6 kts | 324° |
| 2026-05-04 21:21 | -23.62899 | -46.65595 | 2607 ft | 1 kts | 326° |
| 2026-05-04 21:21 | -23.62892 | -46.65606 | 2607 ft | 3 kts | 303° |
| 2026-05-04 21:21 | -23.62892 | -46.65635 | 2606 ft | 6 kts | 259° |
| 2026-05-04 21:21 | -23.62916 | -46.65675 | 2605 ft | 7 kts | 235° |
| 2026-05-04 21:22 | -23.62927 | -46.65698 | 2605 ft | 2 kts | 252° |
| 2026-05-04 21:22 | -23.62924 | -46.65715 | 2605 ft | 3 kts | 284° |
| 2026-05-04 21:22 | -23.62920 | -46.65726 | 2605 ft | 0 kts | 293° |
| 2026-05-04 21:22 | -23.62916 | -46.65731 | 2605 ft | 1 kts | 303° |
| 2026-05-04 21:23 | -23.62909 | -46.65737 | 2605 ft | 1 kts | 328° |
| 2026-05-04 21:23 | -23.62908 | -46.65737 | 2605 ft | 0 kts | 328° |